Time;durP1;ratioP1;P1;durP2;ratioP2;P2;SDS_P1;SDS_P2;PMS_P1;PMS_P2;Temp;Humidity;BMP_temperature;BMP_pressure;BME280_temperature;BME280_humidity;BME280_pressure;Samples;Min_cycle;Max_cycle;Signal;HPM_P1;HPM_P2
2023/06/12 00:01:40;;;;;;;9.63;6.30;;;;;;;21.64;43.09;101389.06;5010786;28;20026;-82
2023/06/12 00:04:06;;;;;;;7.65;5.68;;;;;;;21.58;43.57;101389.72;5007100;28;20022;-79
2023/06/12 00:06:32;;;;;;;9.40;6.32;;;;;;;21.53;43.46;101386.72;4994580;28;20030;-79
2023/06/12 00:08:58;;;;;;;10.30;6.20;;;;;;;21.52;43.16;101390.41;5010936;28;20112;-80
2023/06/12 00:11:24;;;;;;;7.15;6.38;;;;;;;21.46;43.08;101391.94;5011604;28;20032;-80
2023/06/12 00:13:50;;;;;;;7.03;6.00;;;;;;;21.35;43.91;101389.63;5010729;28;20025;-80
2023/06/12 00:16:16;;;;;;;7.63;5.93;;;;;;;21.37;44.12;101395.66;5011661;28;20061;-83
2023/06/12 00:18:42;;;;;;;10.10;6.35;;;;;;;21.30;43.84;101385.78;5009623;28;20042;-80
2023/06/12 00:21:09;;;;;;;8.48;6.20;;;;;;;21.29;44.11;101387.63;5008713;28;20053;-80
2023/06/12 00:23:36;;;;;;;9.90;5.72;;;;;;;21.26;44.18;101391.50;5010567;28;20022;-80
2023/06/12 00:26:02;;;;;;;10.90;6.10;;;;;;;21.20;44.44;101385.91;5011939;28;20038;-83
2023/06/12 00:28:29;;;;;;;6.90;6.03;;;;;;;21.12;44.36;101393.97;5011959;28;20025;-80
2023/06/12 00:30:54;;;;;;;9.68;6.70;;;;;;;21.08;44.83;101387.28;5010685;28;20026;-79
2023/06/12 00:33:20;;;;;;;9.52;6.60;;;;;;;21.03;44.88;101390.47;5008503;28;20437;-80
2023/06/12 00:35:47;;;;;;;10.05;6.32;;;;;;;20.99;45.20;101377.59;5010947;28;20072;-80
2023/06/12 00:38:14;;;;;;;7.88;6.57;;;;;;;20.97;45.18;101385.78;5009331;28;20030;-79
2023/06/12 00:40:40;;;;;;;7.72;6.18;;;;;;;20.89;45.38;101383.13;5009666;28;20064;-80
2023/06/12 00:43:05;;;;;;;11.48;6.45;;;;;;;20.86;45.57;101388.81;5008581;28;20474;-80
2023/06/12 00:45:31;;;;;;;9.10;6.55;;;;;;;20.82;45.77;101382.13;5010863;28;20030;-83
2023/06/12 00:47:58;;;;;;;8.18;6.47;;;;;;;20.78;45.77;101380.75;5008730;28;20414;-79
2023/06/12 00:50:26;;;;;;;10.73;6.15;;;;;;;20.69;46.73;101384.44;5011768;28;20030;-79
2023/06/12 00:52:52;;;;;;;8.52;6.20;;;;;;;20.69;46.94;101381.75;5007706;28;20026;-80
2023/06/12 00:55:18;;;;;;;8.18;6.40;;;;;;;20.67;47.83;101381.94;5002752;28;20037;-80
2023/06/12 00:57:44;;;;;;;8.35;6.35;;;;;;;20.60;46.88;101383.59;5009087;28;20032;-81
2023/06/12 01:00:12;;;;;;;7.78;6.68;;;;;;;20.52;46.47;101387.09;5009349;28;20092;-80
2023/06/12 01:02:42;;;;;;;14.70;7.20;;;;;;;20.42;47.00;101386.44;5008104;28;20024;-80
2023/06/12 01:05:11;;;;;;;7.20;6.50;;;;;;;20.34;47.25;101389.03;5006325;28;20092;-80
2023/06/12 01:07:52;;;;;;;10.98;7.00;;;;;;;20.37;46.58;101383.34;5009872;28;20114;-83
2023/06/12 01:10:22;;;;;;;8.43;6.65;;;;;;;20.30;47.11;101387.69;5008757;28;20025;-81
2023/06/12 01:12:48;;;;;;;10.32;6.88;;;;;;;20.23;47.11;101384.84;4991162;28;20411;-80
2023/06/12 01:15:14;;;;;;;10.60;6.90;;;;;;;20.19;47.50;101388.00;5009640;28;20072;-81
2023/06/12 01:17:41;;;;;;;10.30;6.80;;;;;;;20.14;47.81;101382.31;5010102;28;20316;-80
2023/06/12 01:20:11;;;;;;;10.48;6.80;;;;;;;20.09;47.73;101385.47;5009505;28;20133;-79
2023/06/12 01:22:42;;;;;;;8.52;6.50;;;;;;;19.98;48.05;101397.25;5009389;28;20025;-79
2023/06/12 01:25:25;;;;;;;9.50;6.53;;;;;;;19.94;48.26;101395.09;5006813;28;20117;-79
2023/06/12 01:27:53;;;;;;;8.98;6.97;;;;;;;19.86;48.51;101393.22;5002577;28;20034;-79
2023/06/12 01:30:54;;;;;;;10.40;7.22;;;;;;;19.85;48.32;101394.22;5006583;28;20037;-82
2023/06/12 01:33:30;;;;;;;7.68;6.68;;;;;;;19.78;48.57;101393.19;5006835;28;20037;-79
2023/06/12 01:35:57;;;;;;;9.35;7.07;;;;;;;19.71;48.99;101389.50;5003539;28;20514;-79
2023/06/12 01:38:27;;;;;;;8.07;6.40;;;;;;;19.67;49.00;101396.16;5009051;28;20022;-79
2023/06/12 01:40:53;;;;;;;8.77;6.57;;;;;;;19.65;48.82;101393.63;5008704;28;20032;-79
2023/06/12 01:43:22;;;;;;;8.15;6.68;;;;;;;19.62;49.16;101396.63;5006074;28;20113;-80
2023/06/12 01:45:48;;;;;;;9.80;6.43;;;;;;;19.58;48.94;101402.41;5003962;28;20022;-79
2023/06/12 01:48:14;;;;;;;9.38;6.93;;;;;;;19.53;49.21;101389.53;4999650;28;20053;-79
2023/06/12 01:50:40;;;;;;;8.63;6.90;;;;;;;19.46;49.63;101398.31;5009309;28;20026;-80
2023/06/12 01:53:07;;;;;;;9.45;6.93;;;;;;;19.48;49.32;101397.16;5007128;28;20034;-79
2023/06/12 01:55:33;;;;;;;7.55;6.68;;;;;;;19.44;49.63;101400.31;5014439;28;20029;-80
2023/06/12 01:57:59;;;;;;;9.27;7.18;;;;;;;19.42;49.58;101395.97;5000761;28;20055;-83
2023/06/12 02:00:25;;;;;;;10.85;6.60;;;;;;;19.39;49.65;101393.59;5009300;28;20022;-80
2023/06/12 02:02:53;;;;;;;9.85;7.13;;;;;;;19.33;49.97;101391.56;5002273;28;20471;-80
2023/06/12 02:05:19;;;;;;;10.70;7.47;;;;;;;19.31;50.24;101396.22;5004802;28;20438;-80
2023/06/12 02:07:44;;;;;;;8.77;6.88;;;;;;;19.24;50.26;101400.53;5008729;28;20033;-82
2023/06/12 02:10:10;;;;;;;14.52;7.78;;;;;;;19.19;50.45;101397.47;5009738;28;20117;-83
2023/06/12 02:12:36;;;;;;;11.50;7.55;;;;;;;19.15;50.56;101393.44;5005896;28;20034;-83
2023/06/12 02:15:02;;;;;;;8.23;6.65;;;;;;;19.15;50.96;101396.09;5009239;28;20025;-83
2023/06/12 02:17:28;;;;;;;11.10;7.20;;;;;;;19.09;51.08;101388.72;5011230;28;20372;-80
2023/06/12 02:19:53;;;;;;;9.07;7.40;;;;;;;19.06;51.06;101389.88;5001803;28;20021;-80
2023/06/12 02:22:20;;;;;;;10.00;7.10;;;;;;;19.02;51.31;101390.34;4999839;28;20104;-80
2023/06/12 02:24:46;;;;;;;11.32;6.63;;;;;;;19.02;51.52;101385.00;5012323;28;20037;-80
2023/06/12 02:27:12;;;;;;;10.38;7.50;;;;;;;18.96;51.72;101385.63;5013701;28;20042;-80
2023/06/12 02:29:37;;;;;;;10.23;8.13;;;;;;;18.96;51.72;101386.47;5012601;28;20052;-80
2023/06/12 02:32:03;;;;;;;11.45;7.45;;;;;;;18.92;51.88;101389.59;5011355;28;20494;-83
2023/06/12 02:34:28;;;;;;;12.35;7.50;;;;;;;18.90;51.80;101381.75;4995768;28;20036;-79
2023/06/12 02:36:53;;;;;;;8.30;6.82;;;;;;;18.92;51.88;101384.28;5005024;28;20025;-79
2023/06/12 02:39:19;;;;;;;10.40;7.45;;;;;;;18.87;52.04;101386.56;5013072;28;20037;-79
2023/06/12 02:41:48;;;;;;;10.52;7.38;;;;;;;18.85;52.11;101385.88;5012457;28;20485;-83
2023/06/12 02:44:14;;;;;;;9.70;7.57;;;;;;;18.81;52.15;101390.66;5009954;28;20490;-80
2023/06/12 02:47:00;;;;;;;9.18;7.72;;;;;;;18.78;51.96;101389.13;5009062;28;20076;-80
2023/06/12 02:49:28;;;;;;;9.43;7.63;;;;;;;18.72;52.39;101384.41;5010201;28;20394;-83
2023/06/12 02:51:57;;;;;;;11.25;7.85;;;;;;;18.67;52.80;101391.22;5004770;28;20091;-80
2023/06/12 02:54:24;;;;;;;11.27;7.28;;;;;;;18.63;52.66;101388.00;5011210;28;20033;-80
2023/06/12 02:56:50;;;;;;;10.32;7.53;;;;;;;18.58;53.09;101386.75;5013058;28;20479;-83
2023/06/12 02:59:18;;;;;;;13.00;7.32;;;;;;;18.52;53.42;101390.88;5010681;28;20036;-80
2023/06/12 03:01:44;;;;;;;12.10;7.65;;;;;;;18.51;53.49;101386.53;5011091;28;20034;-80
2023/06/12 03:04:15;;;;;;;10.48;8.05;;;;;;;18.51;53.74;101385.69;5009630;28;20490;-80
2023/06/12 03:06:43;;;;;;;11.13;7.65;;;;;;;18.50;53.70;101389.34;5010099;28;20121;-83
2023/06/12 03:09:09;;;;;;;9.23;8.00;;;;;;;18.42;53.92;101385.63;5009688;28;20026;-80
2023/06/12 03:11:35;;;;;;;11.77;7.72;;;;;;;18.38;54.11;101389.56;5011815;28;20037;-79
2023/06/12 03:14:02;;;;;;;20.77;8.68;;;;;;;18.36;54.28;101382.69;5009686;28;20068;-79
2023/06/12 03:16:28;;;;;;;10.73;7.80;;;;;;;18.35;54.02;101397.00;5011447;28;20034;-79
2023/06/12 03:18:53;;;;;;;11.43;8.65;;;;;;;18.27;54.38;101395.09;5012268;28;20485;-79
2023/06/12 03:21:19;;;;;;;10.55;8.02;;;;;;;18.26;54.56;101395.25;5010674;28;20034;-79
2023/06/12 03:23:45;;;;;;;11.93;7.75;;;;;;;18.23;54.57;101392.91;5011764;28;20017;-79
2023/06/12 03:26:11;;;;;;;13.15;7.93;;;;;;;18.19;54.78;101399.50;5007134;28;20038;-80
2023/06/12 03:28:37;;;;;;;11.77;7.80;;;;;;;18.14;54.76;101397.31;5010222;28;20475;-80
2023/06/12 03:31:03;;;;;;;8.50;7.60;;;;;;;18.11;55.17;101394.94;5010196;28;20076;-79
2023/06/12 03:33:28;;;;;;;9.73;8.13;;;;;;;18.12;55.11;101400.13;5010955;28;20482;-80
2023/06/12 03:35:54;;;;;;;10.82;8.15;;;;;;;18.07;54.58;101406.88;5010288;28;20032;-79
2023/06/12 03:38:20;;;;;;;13.25;8.00;;;;;;;18.04;54.92;101405.34;5011699;28;20113;-80
2023/06/12 03:40:45;;;;;;;11.93;7.70;;;;;;;18.01;55.34;101405.66;5010824;28;20036;-80
2023/06/12 03:43:11;;;;;;;8.68;7.35;;;;;;;17.99;55.17;101407.59;5005761;28;20022;-80
2023/06/12 03:45:37;;;;;;;11.57;7.97;;;;;;;17.96;55.17;101413.22;5012247;28;20386;-80
2023/06/12 03:48:03;;;;;;;10.52;7.90;;;;;;;17.90;55.57;101411.16;5010156;28;20124;-79
2023/06/12 03:50:28;;;;;;;9.52;8.55;;;;;;;17.88;55.89;101414.94;5011523;28;20041;-83
2023/06/12 03:52:54;;;;;;;12.35;8.10;;;;;;;17.85;56.31;101408.09;5009734;28;20026;-79
2023/06/12 03:55:20;;;;;;;10.77;8.13;;;;;;;17.82;56.07;101406.56;5017081;28;20029;-80
2023/06/12 03:57:46;;;;;;;11.93;9.07;;;;;;;17.84;56.26;101403.75;5016830;28;20026;-80
2023/06/12 04:00:11;;;;;;;13.70;8.80;;;;;;;17.87;56.21;101410.59;5002699;28;20044;-81
2023/06/12 04:02:37;;;;;;;11.10;9.25;;;;;;;18.25;55.55;101409.56;5008350;28;20045;-81
2023/06/12 04:05:03;;;;;;;10.75;9.13;;;;;;;19.05;53.91;101412.22;5009153;28;20057;-80
2023/06/12 04:07:28;;;;;;;11.75;9.15;;;;;;;19.69;51.69;101419.03;5011756;28;20063;-80
2023/06/12 04:09:55;;;;;;;16.95;9.07;;;;;;;20.62;49.47;101413.69;5008674;28;20072;-80
2023/06/12 04:12:23;;;;;;;11.70;9.02;;;;;;;21.06;47.67;101421.41;5010409;28;20025;-80
2023/06/12 04:14:49;;;;;;;10.63;9.35;;;;;;;21.47;47.03;101425.75;5011098;28;20397;-80
2023/06/12 04:17:16;;;;;;;12.15;8.95;;;;;;;21.67;46.33;101420.03;4998393;28;20033;-80
2023/06/12 04:19:41;;;;;;;10.30;9.23;;;;;;;21.64;46.47;101417.69;4996860;28;20033;-80
2023/06/12 04:22:06;;;;;;;14.55;9.13;;;;;;;21.14;47.33;101419.56;5010286;28;20073;-80
2023/06/12 04:24:33;;;;;;;16.23;9.77;;;;;;;20.79;48.17;101428.75;5008756;28;20087;-81
2023/06/12 04:27:01;;;;;;;13.32;9.43;;;;;;;20.37;49.14;101426.13;5024399;28;20032;-80
2023/06/12 04:29:28;;;;;;;16.27;10.18;;;;;;;20.00;50.03;101424.66;5010997;28;20092;-80
2023/06/12 04:31:54;;;;;;;14.27;10.30;;;;;;;19.63;51.12;101430.34;5008165;28;20029;-80
2023/06/12 04:34:20;;;;;;;12.15;9.13;;;;;;;19.45;52.09;101423.34;5010352;28;20458;-80
2023/06/12 04:36:57;;;;;;;;;;;;;;;;;;;;;
2023/06/12 04:39:23;;;;;;;16.63;9.48;;;;;;;19.13;53.65;101431.94;5009761;28;20029;-80
2023/06/12 04:41:51;;;;;;;14.75;9.85;;;;;;;18.98;53.74;101423.66;5008130;28;20029;-81
2023/06/12 04:44:17;;;;;;;18.08;9.57;;;;;;;18.98;53.91;101415.66;5011178;28;20018;-81
2023/06/12 04:46:43;;;;;;;15.90;10.07;;;;;;;18.88;54.33;101423.75;5008877;28;20053;-81
2023/06/12 04:49:08;;;;;;;20.83;10.40;;;;;;;18.84;54.69;101422.38;5008572;28;20026;-81
2023/06/12 04:51:35;;;;;;;12.02;10.35;;;;;;;18.86;54.88;101428.41;5007787;28;20025;-81
2023/06/12 04:54:01;;;;;;;15.85;10.68;;;;;;;18.78;54.83;101431.78;5009108;28;20030;-81
2023/06/12 04:56:27;;;;;;;12.35;9.60;;;;;;;18.77;55.66;101432.78;5011684;28;20045;-80
2023/06/12 04:58:53;;;;;;;16.85;10.93;;;;;;;18.70;54.96;101434.41;5010696;28;20029;-83
2023/06/12 05:01:22;;;;;;;19.50;10.57;;;;;;;18.81;55.62;101445.81;5009126;28;20474;-81
2023/06/12 05:03:53;;;;;;;15.85;10.07;;;;;;;18.78;55.81;101444.28;5009721;28;20418;-80
2023/06/12 05:06:20;;;;;;;18.90;11.10;;;;;;;18.71;55.04;101440.56;4998896;28;20101;-80
2023/06/12 05:08:45;;;;;;;13.88;10.65;;;;;;;18.63;55.45;101449.31;5006730;28;20117;-81
2023/06/12 05:11:11;;;;;;;17.75;10.15;;;;;;;18.69;55.95;101443.38;4996175;28;20120;-80
2023/06/12 05:13:36;;;;;;;15.45;10.02;;;;;;;18.73;56.11;101436.75;5008727;28;20084;-81
2023/06/12 05:16:02;;;;;;;17.85;10.82;;;;;;;18.81;56.09;101445.81;5008685;28;20025;-80
2023/06/12 05:18:27;;;;;;;22.10;10.30;;;;;;;18.82;55.77;101442.19;5009742;28;20026;-81
2023/06/12 05:20:53;;;;;;;16.65;10.80;;;;;;;18.86;56.20;101438.22;5006084;28;20029;-80
2023/06/12 05:23:18;;;;;;;15.93;10.68;;;;;;;18.91;55.66;101443.94;5008453;28;20044;-80
2023/06/12 05:25:44;;;;;;;16.15;11.20;;;;;;;18.96;56.06;101441.63;5013855;28;20108;-79
2023/06/12 05:28:11;;;;;;;19.42;11.15;;;;;;;18.96;55.51;101445.16;5021772;28;20401;-80
2023/06/12 05:30:36;;;;;;;15.63;11.20;;;;;;;18.98;56.00;101443.16;5010589;28;20394;-80
2023/06/12 05:33:02;;;;;;;14.20;11.20;;;;;;;19.02;55.63;101441.84;5009846;28;20026;-81
2023/06/12 05:35:28;;;;;;;16.92;11.20;;;;;;;19.11;55.98;101437.44;5009189;28;20196;-83
2023/06/12 05:37:53;;;;;;;17.08;11.20;;;;;;;19.20;55.77;101435.66;5022304;28;20471;-83
2023/06/12 05:40:19;;;;;;;14.98;11.45;;;;;;;19.31;55.74;101438.94;4992895;28;20034;-83
2023/06/12 05:42:44;;;;;;;20.00;11.98;;;;;;;19.41;55.16;101433.50;5010084;28;20014;-83
2023/06/12 05:45:10;;;;;;;18.42;11.57;;;;;;;19.49;54.50;101430.03;5009264;28;20122;-81
2023/06/12 05:47:36;;;;;;;15.55;12.23;;;;;;;19.55;54.42;101432.09;5009356;28;20414;-81
2023/06/12 05:50:01;;;;;;;16.90;11.88;;;;;;;19.63;54.05;101421.50;5007042;28;20034;-80
2023/06/12 05:52:27;;;;;;;17.23;11.75;;;;;;;19.67;54.19;101428.19;5014516;28;20385;-80
2023/06/12 05:54:52;;;;;;;14.05;11.85;;;;;;;19.77;54.33;101425.41;5010063;28;20034;-83
2023/06/12 05:57:18;;;;;;;28.55;12.25;;;;;;;19.83;54.58;101422.09;5033937;28;20136;-83
2023/06/12 05:59:44;;;;;;;14.45;12.07;;;;;;;19.92;54.29;101427.28;5030983;28;20017;-79
2023/06/12 06:02:10;;;;;;;12.98;10.80;;;;;;;20.02;54.40;101425.38;5011419;28;20040;-79
2023/06/12 06:04:36;;;;;;;29.33;12.77;;;;;;;20.08;53.85;101420.38;5011862;28;20092;-80
2023/06/12 06:07:02;;;;;;;13.82;11.98;;;;;;;20.20;53.54;101419.06;5012455;28;20025;-79
2023/06/12 06:09:28;;;;;;;25.00;11.98;;;;;;;20.28;53.73;101417.25;5013021;28;20049;-83
2023/06/12 06:11:53;;;;;;;17.85;10.82;;;;;;;20.36;52.75;101424.44;5009476;28;20061;-79
2023/06/12 06:14:21;;;;;;;14.10;11.07;;;;;;;20.45;52.08;101428.88;4992984;28;20034;-80
2023/06/12 06:16:53;;;;;;;12.13;10.38;;;;;;;20.55;52.05;101434.91;4992372;28;20022;-80
2023/06/12 06:19:18;;;;;;;13.88;10.77;;;;;;;20.62;51.73;101425.22;5013090;28;20030;-80
2023/06/12 06:21:44;;;;;;;18.88;11.35;;;;;;;20.69;51.42;101428.06;5012207;28;20367;-79
2023/06/12 06:24:10;;;;;;;17.10;10.75;;;;;;;20.76;51.85;101430.91;5012174;28;20025;-83
2023/06/12 06:26:36;;;;;;;15.52;10.63;;;;;;;20.87;52.18;101427.94;5024418;28;20048;-79
2023/06/12 06:29:01;;;;;;;17.05;10.48;;;;;;;20.93;51.36;101433.44;5003365;28;20030;-79
2023/06/12 06:31:27;;;;;;;17.38;10.25;;;;;;;21.06;51.10;101430.25;5011129;28;20022;-80
2023/06/12 06:33:52;;;;;;;18.90;9.73;;;;;;;21.11;51.01;101435.09;5011215;28;20105;-79
2023/06/12 06:36:19;;;;;;;16.33;9.73;;;;;;;21.15;50.57;101442.63;5011072;28;20061;-83
2023/06/12 06:38:45;;;;;;;15.20;9.48;;;;;;;21.20;50.62;101434.09;5011016;28;20054;-80
2023/06/12 06:41:10;;;;;;;13.30;8.95;;;;;;;21.26;49.87;101433.47;5002957;28;20026;-79
2023/06/12 06:43:36;;;;;;;12.70;8.52;;;;;;;21.36;49.61;101439.47;5011573;28;20038;-82
2023/06/12 06:46:01;;;;;;;9.60;8.45;;;;;;;21.43;49.29;101439.63;5007930;28;20037;-83
2023/06/12 06:48:26;;;;;;;12.35;8.63;;;;;;;21.48;49.54;101437.28;5008546;28;20022;-82
2023/06/12 06:50:52;;;;;;;11.38;7.40;;;;;;;21.56;49.98;101439.94;5010067;28;20117;-80
2023/06/12 06:53:17;;;;;;;10.43;7.90;;;;;;;21.66;49.43;101437.09;5011135;28;20025;-79
2023/06/12 06:55:43;;;;;;;12.07;8.30;;;;;;;21.80;48.51;101444.41;5013115;28;20026;-83
2023/06/12 06:58:08;;;;;;;10.07;7.28;;;;;;;21.92;48.45;101444.88;5009679;28;20044;-83
2023/06/12 07:00:34;;;;;;;8.90;6.35;;;;;;;21.99;48.43;101438.63;5026140;28;20101;-79
2023/06/12 07:02:59;;;;;;;10.45;6.82;;;;;;;22.14;47.31;101433.44;5007835;28;20161;-83
2023/06/12 07:05:27;;;;;;;13.27;6.82;;;;;;;22.33;48.01;101433.00;5010438;28;20049;-80
2023/06/12 07:07:53;;;;;;;8.60;7.20;;;;;;;22.43;47.06;101439.00;5008978;28;20474;-79
2023/06/12 07:10:19;;;;;;;14.90;7.15;;;;;;;22.73;47.14;101433.75;5011518;28;20871;-79
2023/06/12 07:12:44;;;;;;;10.52;6.65;;;;;;;22.95;46.46;101430.28;5009676;28;20144;-79
2023/06/12 07:15:09;;;;;;;10.70;6.63;;;;;;;23.21;45.03;101432.56;5016334;28;20363;-80
2023/06/12 07:17:35;;;;;;;9.50;6.75;;;;;;;23.44;45.76;101421.78;5011172;28;20029;-83
2023/06/12 07:20:01;;;;;;;14.68;6.75;;;;;;;23.57;43.21;101418.47;5007338;28;20848;-80
2023/06/12 07:22:28;;;;;;;13.75;6.53;;;;;;;23.77;43.00;101416.06;5004627;28;20084;-80
2023/06/12 07:24:54;;;;;;;12.77;6.35;;;;;;;23.99;43.54;101410.56;5010990;28;20032;-80
2023/06/12 07:27:19;;;;;;;10.88;6.20;;;;;;;24.21;41.95;101408.78;5028574;28;20040;-81
2023/06/12 07:29:45;;;;;;;10.63;6.65;;;;;;;24.23;41.62;101411.28;5012620;28;20112;-80
2023/06/12 07:32:10;;;;;;;14.48;7.00;;;;;;;24.34;41.89;101411.66;5010077;28;20125;-79
2023/06/12 07:34:36;;;;;;;11.85;6.60;;;;;;;24.46;41.65;101412.00;5003069;28;20088;-79
2023/06/12 07:37:03;;;;;;;14.02;6.78;;;;;;;24.66;41.50;101412.19;5006652;28;20029;-79
2023/06/12 07:39:29;;;;;;;9.60;6.32;;;;;;;24.92;41.51;101412.47;5011231;28;20390;-75
2023/06/12 07:41:54;;;;;;;8.35;6.57;;;;;;;25.08;40.39;101407.84;5010283;28;20034;-73
2023/06/12 07:44:23;;;;;;;9.82;6.28;;;;;;;25.20;40.84;101408.97;5010170;28;20026;-73
2023/06/12 07:46:49;;;;;;;9.65;6.30;;;;;;;25.21;39.78;101407.94;4968147;28;1191026;-73
2023/06/12 07:49:16;;;;;;;6.32;5.68;;;;;;;25.51;39.78;101405.88;5009770;28;20125;-73
2023/06/12 07:51:41;;;;;;;9.05;6.18;;;;;;;25.75;39.50;101399.22;5021392;28;20034;-79
2023/06/12 07:54:07;;;;;;;9.75;6.28;;;;;;;26.08;39.24;101405.59;5008664;28;20390;-73
2023/06/12 07:56:32;;;;;;;9.13;5.93;;;;;;;26.11;38.39;101405.19;5016920;28;20107;-72
2023/06/12 07:59:09;;;;;;;12.45;5.82;;;;;;;26.38;38.77;101407.97;5010737;28;20065;-73
2023/06/12 08:01:38;;;;;;;7.97;6.00;;;;;;;26.63;37.78;101409.09;5005738;28;20041;-72
2023/06/12 08:04:10;;;;;;;8.55;5.90;;;;;;;26.65;36.80;101404.31;5005667;28;20018;-73
2023/06/12 08:06:37;;;;;;;7.35;5.60;;;;;;;26.79;36.87;101405.97;5008702;28;20033;-73
2023/06/12 08:09:03;;;;;;;12.27;6.20;;;;;;;26.84;36.87;101395.41;5009811;28;20509;-73
2023/06/12 08:11:28;;;;;;;10.32;5.95;;;;;;;27.16;36.91;101398.34;5011646;28;20026;-78
2023/06/12 08:13:54;;;;;;;8.27;5.75;;;;;;;27.19;35.73;101389.81;5009322;28;20049;-78
2023/06/12 08:16:23;;;;;;;9.48;6.07;;;;;;;27.21;36.11;101398.53;5009467;28;20030;-77
2023/06/12 08:18:49;;;;;;;9.23;5.85;;;;;;;27.28;35.29;101395.84;5010296;28;20021;-83
2023/06/12 08:21:15;;;;;;;9.88;6.22;;;;;;;27.22;36.00;101394.81;5008082;28;20033;-75
2023/06/12 08:23:40;;;;;;;7.78;6.10;;;;;;;27.43;35.35;101399.13;4991456;28;20033;-74
2023/06/12 08:26:05;;;;;;;10.43;5.85;;;;;;;27.76;35.02;101393.69;5014325;28;20025;-75
2023/06/12 08:28:33;;;;;;;11.10;6.53;;;;;;;27.99;34.54;101399.41;5009782;28;20029;-77
2023/06/12 08:30:59;;;;;;;9.93;6.32;;;;;;;28.12;34.16;101395.00;5020391;28;20045;-76
2023/06/12 08:33:25;;;;;;;9.07;6.07;;;;;;;28.22;33.62;101398.88;5019514;28;20058;-75
2023/06/12 08:35:53;;;;;;;7.43;5.70;;;;;;;28.32;33.68;101401.16;4991270;28;20430;-76
2023/06/12 08:38:18;;;;;;;10.38;5.75;;;;;;;28.70;33.78;101393.81;5005997;28;20064;-79
2023/06/12 08:40:46;;;;;;;14.02;5.70;;;;;;;28.78;33.04;101395.44;5009459;28;20053;-79
2023/06/12 08:43:11;;;;;;;8.60;5.68;;;;;;;28.87;33.40;101387.91;5006448;28;20025;-75
2023/06/12 08:45:45;;;;;;;11.40;6.70;;;;;;;28.93;33.20;101397.84;5007725;28;20487;-75
2023/06/12 08:48:15;;;;;;;8.10;5.55;;;;;;;29.35;33.01;101388.09;5008235;28;20525;-76
2023/06/12 08:50:42;;;;;;;7.95;5.75;;;;;;;29.70;32.05;101388.38;5010918;28;20513;-80
2023/06/12 08:53:07;;;;;;;7.43;5.70;;;;;;;29.78;31.13;101388.06;5007048;28;20029;-79
2023/06/12 08:55:39;;;;;;;5.78;5.15;;;;;;;30.00;31.34;101384.84;5012171;28;20095;-79
2023/06/12 08:58:07;;;;;;;11.25;5.30;;;;;;;30.09;30.84;101386.25;5002684;28;20113;-79
2023/06/12 09:00:33;;;;;;;8.80;5.15;;;;;;;29.90;30.43;101382.69;5005606;28;20018;-76
2023/06/12 09:03:04;;;;;;;8.07;5.38;;;;;;;29.57;31.12;101394.75;5008842;28;20018;-76
2023/06/12 09:05:38;;;;;;;7.30;5.30;;;;;;;29.43;31.32;101386.97;5008633;28;20115;-79
2023/06/12 09:08:04;;;;;;;8.20;5.43;;;;;;;29.59;30.92;101383.66;5008344;28;20022;-80
2023/06/12 09:10:34;;;;;;;9.15;5.32;;;;;;;29.92;31.88;101381.41;5009812;28;20116;-79
2023/06/12 09:13:01;;;;;;;8.35;5.38;;;;;;;30.15;30.40;101374.47;5007798;28;20033;-79
2023/06/12 09:15:27;;;;;;;21.85;5.90;;;;;;;30.08;30.26;101374.56;5009127;28;20390;-78
2023/06/12 09:17:53;;;;;;;9.63;4.88;;;;;;;29.71;30.65;101367.50;5006204;28;20018;-76
2023/06/12 09:20:30;;;;;;;10.57;5.28;;;;;;;29.99;31.00;101375.06;5004346;28;20037;-77
2023/06/12 09:22:58;;;;;;;6.43;5.13;;;;;;;30.09;30.67;101369.97;5005808;28;20037;-76
2023/06/12 09:25:34;;;;;;;14.20;5.50;;;;;;;29.95;30.00;101361.94;5010135;28;20065;-77
2023/06/12 09:27:59;;;;;;;9.68;4.82;;;;;;;30.37;30.87;101364.72;5013022;28;20029;-77
2023/06/12 09:30:25;;;;;;;6.57;5.13;;;;;;;30.42;29.61;101359.44;5010216;28;20021;-77
2023/06/12 09:32:51;;;;;;;11.07;4.90;;;;;;;30.53;29.04;101365.97;4996571;28;20112;-77
2023/06/12 09:35:17;;;;;;;10.77;5.03;;;;;;;30.28;29.17;101363.41;5006253;28;20494;-78
2023/06/12 09:37:43;;;;;;;5.72;5.00;;;;;;;30.44;29.64;101365.47;5008717;28;20026;-77
2023/06/12 09:40:13;;;;;;;8.20;5.28;;;;;;;30.44;29.88;101373.63;5009797;28;20026;-77
2023/06/12 09:42:40;;;;;;;8.90;5.00;;;;;;;30.06;29.08;101376.69;5005261;28;20018;-77
2023/06/12 09:45:17;;;;;;;5.97;4.70;;;;;;;29.67;29.76;101371.72;5008202;28;20041;-76
2023/06/12 09:47:50;;;;;;;6.75;4.57;;;;;;;29.50;30.28;101366.03;5007248;28;20427;-76
2023/06/12 09:50:17;;;;;;;8.63;5.10;;;;;;;29.38;31.04;101365.13;5023555;28;20112;-76
2023/06/12 09:52:45;;;;;;;9.15;5.20;;;;;;;29.56;30.98;101367.84;5009501;28;20025;-76
2023/06/12 09:55:15;;;;;;;6.15;4.80;;;;;;;29.79;30.38;101373.44;5010517;28;20483;-75
2023/06/12 09:57:59;;;;;;;7.68;4.68;;;;;;;30.28;30.00;101370.72;5018532;28;20658;-74
2023/06/12 10:00:25;;;;;;;6.22;4.55;;;;;;;30.72;28.80;101374.88;5008825;28;20148;-72
2023/06/12 10:03:00;;;;;;;7.50;4.72;;;;;;;31.63;27.80;101359.88;5008705;28;20038;-75
2023/06/12 10:05:50;;;;;;;8.13;5.28;;;;;;;32.75;27.67;101362.81;5009061;28;20164;-75
2023/06/12 10:08:17;;;;;;;6.03;4.80;;;;;;;33.37;25.66;101362.72;5006933;28;20044;-78
2023/06/12 10:10:43;;;;;;;10.82;5.55;;;;;;;34.08;24.53;101360.88;5004958;28;20030;-78
2023/06/12 10:13:10;;;;;;;7.32;5.13;;;;;;;34.29;24.20;101347.41;5005010;28;20422;-78
2023/06/12 10:15:39;;;;;;;8.90;4.80;;;;;;;34.01;25.85;101349.31;4992666;28;20454;-77
2023/06/12 10:18:08;;;;;;;11.52;5.20;;;;;;;33.38;26.58;101344.44;5008121;28;20041;-78
2023/06/12 10:20:34;;;;;;;7.60;4.63;;;;;;;32.65;25.92;101349.03;5023936;28;20080;-79
2023/06/12 10:23:02;;;;;;;7.00;5.30;;;;;;;32.22;26.09;101352.34;5008026;28;20464;-77
2023/06/12 10:25:29;;;;;;;7.63;5.03;;;;;;;32.04;27.43;101339.78;5009881;28;20367;-78
2023/06/12 10:27:55;;;;;;;5.45;4.95;;;;;;;31.54;27.60;101344.97;5008788;28;20474;-78
2023/06/12 10:30:21;;;;;;;5.22;4.70;;;;;;;31.52;27.74;101347.13;5007025;28;20433;-79
2023/06/12 10:32:49;;;;;;;7.65;5.28;;;;;;;31.33;27.56;101354.59;5008435;28;20053;-77
2023/06/12 10:35:31;;;;;;;8.52;4.63;;;;;;;31.31;28.11;101354.84;5008257;28;20053;-77
2023/06/12 10:37:56;;;;;;;9.70;4.90;;;;;;;31.21;27.99;101337.47;5009629;28;20026;-78
2023/06/12 10:40:23;;;;;;;5.72;4.72;;;;;;;31.25;27.64;101335.94;5012910;28;20054;-77
2023/06/12 10:42:52;;;;;;;7.63;4.72;;;;;;;31.09;27.46;101338.28;5010235;28;20022;-78
2023/06/12 10:45:28;;;;;;;9.05;5.00;;;;;;;31.15;27.95;101336.50;5010704;28;20079;-79
2023/06/12 10:48:02;;;;;;;9.70;4.78;;;;;;;31.31;28.25;101332.25;5011579;28;20046;-79
2023/06/12 10:50:31;;;;;;;5.95;4.90;;;;;;;31.43;28.02;101330.34;5007418;28;20021;-78
2023/06/12 10:53:00;;;;;;;6.80;4.70;;;;;;;31.45;27.78;101330.94;5008548;28;20049;-79
2023/06/12 10:55:29;;;;;;;7.43;4.95;;;;;;;31.69;28.02;101326.25;5012884;28;20037;-78
2023/06/12 10:57:55;;;;;;;5.40;4.72;;;;;;;31.75;27.44;101328.88;5009279;28;20034;-79
2023/06/12 11:00:28;;;;;;;6.97;5.25;;;;;;;31.39;27.20;101321.00;5010467;28;20033;-78
2023/06/12 11:03:03;;;;;;;8.35;4.45;;;;;;;31.70;27.80;101317.88;5012618;28;20036;-78
2023/06/12 11:05:30;;;;;;;8.43;5.22;;;;;;;31.82;28.28;101315.13;5009639;28;20026;-78
2023/06/12 11:08:06;;;;;;;10.27;5.03;;;;;;;31.93;28.04;101307.97;5010714;28;20036;-78
2023/06/12 11:10:34;;;;;;;8.52;5.28;;;;;;;31.82;27.86;101311.56;5007603;28;20503;-73
2023/06/12 11:13:03;;;;;;;8.13;5.00;;;;;;;31.89;27.67;101310.34;5007166;28;20486;-76
2023/06/12 11:15:33;;;;;;;6.90;5.07;;;;;;;31.73;28.28;101322.03;5011437;28;20038;-75
2023/06/12 11:17:58;;;;;;;7.90;5.50;;;;;;;31.89;26.64;101310.34;5010124;28;20115;-80
2023/06/12 11:20:24;;;;;;;9.18;5.32;;;;;;;31.88;27.29;101313.31;5011565;28;20076;-80
2023/06/12 11:23:00;;;;;;;7.55;5.25;;;;;;;31.87;27.87;101311.66;5012151;28;20601;-80